sensor_id;sensor_type;location;lat;lon;timestamp;pressure;altitude;pressure_sealevel;temperature;humidity
50867;BME280;36839;51.946;21.002;2024-03-07T00:00:33;101061.08;;;2.08;100.00
50867;BME280;36839;51.946;21.002;2024-03-07T00:03:19;101061.38;;;2.05;100.00
50867;BME280;36839;51.946;21.002;2024-03-07T00:05:46;101064.98;;;1.96;100.00
50867;BME280;36839;51.946;21.002;2024-03-07T00:08:13;101062.13;;;1.93;100.00
50867;BME280;36839;51.946;21.002;2024-03-07T00:10:40;101067.84;;;1.89;100.00
50867;BME280;36839;51.946;21.002;2024-03-07T00:13:10;101064.63;;;1.88;100.00
50867;BME280;36839;51.946;21.002;2024-03-07T00:15:39;101064.31;;;1.89;100.00
50867;BME280;36839;51.946;21.002;2024-03-07T00:18:07;101063.23;;;1.86;100.00
50867;BME280;36839;51.946;21.002;2024-03-07T00:20:34;101062.15;;;1.81;100.00
50867;BME280;36839;51.946;21.002;2024-03-07T00:23:01;101067.64;;;1.87;100.00
50867;BME280;36839;51.946;21.002;2024-03-07T00:25:30;101062.70;;;1.90;100.00
50867;BME280;36839;51.946;21.002;2024-03-07T00:27:58;101059.98;;;1.87;100.00
50867;BME280;36839;51.946;21.002;2024-03-07T00:30:29;101059.17;;;1.82;100.00
50867;BME280;36839;51.946;21.002;2024-03-07T00:32:57;101058.29;;;1.81;100.00
50867;BME280;36839;51.946;21.002;2024-03-07T00:35:24;101058.92;;;1.80;100.00
50867;BME280;36839;51.946;21.002;2024-03-07T00:37:51;101061.27;;;1.81;100.00
50867;BME280;36839;51.946;21.002;2024-03-07T00:40:17;101059.23;;;1.76;100.00
50867;BME280;36839;51.946;21.002;2024-03-07T00:42:44;101058.33;;;1.75;100.00
50867;BME280;36839;51.946;21.002;2024-03-07T00:45:11;101054.08;;;1.72;100.00
50867;BME280;36839;51.946;21.002;2024-03-07T00:47:38;101057.77;;;1.70;100.00
50867;BME280;36839;51.946;21.002;2024-03-07T00:50:06;101059.00;;;1.67;100.00
50867;BME280;36839;51.946;21.002;2024-03-07T00:52:35;101059.20;;;1.66;100.00
50867;BME280;36839;51.946;21.002;2024-03-07T00:55:02;112633.60;;;-27.49;100.00
50867;BME280;36839;51.946;21.002;2024-03-07T00:57:29;97655.77;;;1.59;100.00
50867;BME280;36839;51.946;21.002;2024-03-07T00:59:55;101059.09;;;1.50;100.00
50867;BME280;36839;51.946;21.002;2024-03-07T01:02:23;101062.00;;;1.42;100.00
50867;BME280;36839;51.946;21.002;2024-03-07T01:04:49;101064.93;;;1.39;100.00
50867;BME280;36839;51.946;21.002;2024-03-07T01:07:16;101062.65;;;1.37;100.00
50867;BME280;36839;51.946;21.002;2024-03-07T01:09:43;101065.55;;;1.34;100.00
50867;BME280;36839;51.946;21.002;2024-03-07T01:12:09;101061.70;;;1.34;100.00
50867;BME280;36839;51.946;21.002;2024-03-07T01:14:38;101061.55;;;1.32;100.00
50867;BME280;36839;51.946;21.002;2024-03-07T01:17:05;101062.71;;;1.29;100.00
50867;BME280;36839;51.946;21.002;2024-03-07T01:19:34;101062.48;;;1.26;100.00
50867;BME280;36839;51.946;21.002;2024-03-07T01:22:00;101064.21;;;1.24;100.00
50867;BME280;36839;51.946;21.002;2024-03-07T01:24:27;101067.23;;;1.19;100.00
50867;BME280;36839;51.946;21.002;2024-03-07T01:26:53;101061.16;;;1.13;100.00
50867;BME280;36839;51.946;21.002;2024-03-07T01:29:20;101061.66;;;1.16;100.00
50867;BME280;36839;51.946;21.002;2024-03-07T01:31:47;101063.41;;;1.06;100.00
50867;BME280;36839;51.946;21.002;2024-03-07T01:34:15;101062.89;;;1.07;100.00
50867;BME280;36839;51.946;21.002;2024-03-07T01:36:42;101061.40;;;1.06;100.00
50867;BME280;36839;51.946;21.002;2024-03-07T01:39:09;101060.60;;;1.05;100.00
50867;BME280;36839;51.946;21.002;2024-03-07T01:41:36;101065.29;;;1.04;100.00
50867;BME280;36839;51.946;21.002;2024-03-07T01:44:04;101063.59;;;1.02;100.00
50867;BME280;36839;51.946;21.002;2024-03-07T01:46:31;101060.94;;;1.05;100.00
50867;BME280;36839;51.946;21.002;2024-03-07T01:48:58;101060.78;;;1.02;100.00
50867;BME280;36839;51.946;21.002;2024-03-07T01:51:25;101058.23;;;0.92;100.00
50867;BME280;36839;51.946;21.002;2024-03-07T01:53:52;101057.00;;;0.89;100.00
50867;BME280;36839;51.946;21.002;2024-03-07T01:56:19;101055.73;;;0.91;100.00
50867;BME280;36839;51.946;21.002;2024-03-07T01:58:47;101059.66;;;0.91;100.00
50867;BME280;36839;51.946;21.002;2024-03-07T02:01:15;101062.27;;;0.92;100.00
50867;BME280;36839;51.946;21.002;2024-03-07T02:03:42;101062.48;;;0.93;100.00
50867;BME280;36839;51.946;21.002;2024-03-07T02:06:10;101061.23;;;0.88;100.00
50867;BME280;36839;51.946;21.002;2024-03-07T02:08:39;101060.77;;;0.89;100.00
50867;BME280;36839;51.946;21.002;2024-03-07T02:11:06;101058.38;;;0.86;100.00
50867;BME280;36839;51.946;21.002;2024-03-07T02:13:36;101058.80;;;0.82;100.00
50867;BME280;36839;51.946;21.002;2024-03-07T02:16:03;101061.17;;;0.82;100.00
50867;BME280;36839;51.946;21.002;2024-03-07T02:18:30;101060.20;;;0.78;100.00
50867;BME280;36839;51.946;21.002;2024-03-07T02:20:57;101059.55;;;0.75;100.00
50867;BME280;36839;51.946;21.002;2024-03-07T02:23:24;101060.06;;;0.75;100.00
50867;BME280;36839;51.946;21.002;2024-03-07T02:25:50;101056.61;;;0.71;100.00
50867;BME280;36839;51.946;21.002;2024-03-07T02:28:17;101062.22;;;0.66;100.00
50867;BME280;36839;51.946;21.002;2024-03-07T02:30:44;101064.29;;;0.54;100.00
50867;BME280;36839;51.946;21.002;2024-03-07T02:33:12;101064.29;;;0.49;100.00
50867;BME280;36839;51.946;21.002;2024-03-07T02:35:38;101069.35;;;0.52;100.00
50867;BME280;36839;51.946;21.002;2024-03-07T02:38:06;101069.71;;;0.54;100.00
50867;BME280;36839;51.946;21.002;2024-03-07T02:40:33;101071.66;;;0.53;100.00
50867;BME280;36839;51.946;21.002;2024-03-07T02:43:00;101070.27;;;0.51;100.00
50867;BME280;36839;51.946;21.002;2024-03-07T02:45:27;101071.13;;;0.47;100.00
50867;BME280;36839;51.946;21.002;2024-03-07T02:47:53;101070.77;;;0.45;100.00
50867;BME280;36839;51.946;21.002;2024-03-07T02:50:21;101069.23;;;0.44;100.00
50867;BME280;36839;51.946;21.002;2024-03-07T02:52:49;101072.77;;;0.41;100.00
50867;BME280;36839;51.946;21.002;2024-03-07T02:55:16;101071.70;;;0.39;100.00
50867;BME280;36839;51.946;21.002;2024-03-07T02:57:42;101071.48;;;0.36;100.00
50867;BME280;36839;51.946;21.002;2024-03-07T03:00:09;101069.39;;;0.31;100.00
50867;BME280;36839;51.946;21.002;2024-03-07T03:02:57;101068.33;;;0.28;100.00
50867;BME280;36839;51.946;21.002;2024-03-07T03:05:23;101067.55;;;0.22;100.00
50867;BME280;36839;51.946;21.002;2024-03-07T03:07:51;101067.36;;;0.16;100.00
50867;BME280;36839;51.946;21.002;2024-03-07T03:10:22;101069.48;;;0.11;100.00
50867;BME280;36839;51.946;21.002;2024-03-07T03:12:59;101073.96;;;0.05;100.00
50867;BME280;36839;51.946;21.002;2024-03-07T03:15:27;101076.76;;;-0.02;100.00
50867;BME280;36839;51.946;21.002;2024-03-07T03:17:54;101072.83;;;-0.07;100.00
50867;BME280;36839;51.946;21.002;2024-03-07T03:20:21;101073.30;;;-0.13;100.00
50867;BME280;36839;51.946;21.002;2024-03-07T03:23:11;101073.30;;;-0.17;100.00
50867;BME280;36839;51.946;21.002;2024-03-07T03:25:40;101072.29;;;-0.24;100.00
50867;BME280;36839;51.946;21.002;2024-03-07T03:28:08;101071.80;;;-0.29;100.00
50867;BME280;36839;51.946;21.002;2024-03-07T03:30:38;101074.14;;;-0.34;100.00
50867;BME280;36839;51.946;21.002;2024-03-07T03:33:05;101077.35;;;-0.37;100.00
50867;BME280;36839;51.946;21.002;2024-03-07T03:35:34;101073.45;;;-0.42;100.00
50867;BME280;36839;51.946;21.002;2024-03-07T03:38:01;101077.11;;;-0.46;100.00
50867;BME280;36839;51.946;21.002;2024-03-07T03:40:28;60649.39;;;-51.49;59.60
50867;BME280;36839;51.946;21.002;2024-03-07T03:42:55;-1.00;;;-128.00;-1.00
50867;BME280;36839;51.946;21.002;2024-03-07T03:45:21;-1.00;;;-128.00;-1.00
50867;BME280;36839;51.946;21.002;2024-03-07T03:47:48;-1.00;;;-128.00;-1.00
50867;BME280;36839;51.946;21.002;2024-03-07T03:50:14;-1.00;;;-128.00;-1.00
50867;BME280;36839;51.946;21.002;2024-03-07T03:52:41;-1.00;;;-128.00;-1.00
50867;BME280;36839;51.946;21.002;2024-03-07T03:55:08;-1.00;;;-128.00;-1.00
50867;BME280;36839;51.946;21.002;2024-03-07T03:57:42;-1.00;;;-128.00;-1.00
50867;BME280;36839;51.946;21.002;2024-03-07T04:00:11;-1.00;;;-128.00;-1.00
50867;BME280;36839;51.946;21.002;2024-03-07T04:02:42;-1.00;;;-128.00;-1.00
50867;BME280;36839;51.946;21.002;2024-03-07T04:05:11;-1.00;;;-128.00;-1.00
50867;BME280;36839;51.946;21.002;2024-03-07T04:07:40;-1.00;;;-128.00;-1.00
50867;BME280;36839;51.946;21.002;2024-03-07T04:10:09;-1.00;;;-128.00;-1.00
50867;BME280;36839;51.946;21.002;2024-03-07T04:12:39;-1.00;;;-128.00;-1.00
50867;BME280;36839;51.946;21.002;2024-03-07T04:15:11;-1.00;;;-128.00;-1.00
50867;BME280;36839;51.946;21.002;2024-03-07T04:17:38;-1.00;;;-128.00;-1.00
50867;BME280;36839;51.946;21.002;2024-03-07T04:20:06;-1.00;;;-128.00;-1.00
50867;BME280;36839;51.946;21.002;2024-03-07T04:22:34;-1.00;;;-128.00;-1.00
50867;BME280;36839;51.946;21.002;2024-03-07T04:25:02;-1.00;;;-128.00;-1.00
50867;BME280;36839;51.946;21.002;2024-03-07T04:27:29;-1.00;;;-128.00;-1.00
50867;BME280;36839;51.946;21.002;2024-03-07T04:29:57;-1.00;;;-128.00;-1.00
50867;BME280;36839;51.946;21.002;2024-03-07T04:32:24;-1.00;;;-128.00;-1.00
50867;BME280;36839;51.946;21.002;2024-03-07T04:34:50;-1.00;;;-128.00;-1.00
50867;BME280;36839;51.946;21.002;2024-03-07T04:37:17;-1.00;;;-128.00;-1.00
50867;BME280;36839;51.946;21.002;2024-03-07T04:39:44;-1.00;;;-128.00;-1.00
50867;BME280;36839;51.946;21.002;2024-03-07T04:42:12;-1.00;;;-128.00;-1.00
50867;BME280;36839;51.946;21.002;2024-03-07T04:44:38;-1.00;;;-128.00;-1.00
50867;BME280;36839;51.946;21.002;2024-03-07T04:47:06;-1.00;;;-128.00;-1.00
50867;BME280;36839;51.946;21.002;2024-03-07T04:49:34;-1.00;;;-128.00;-1.00
50867;BME280;36839;51.946;21.002;2024-03-07T04:52:02;-1.00;;;-128.00;-1.00
50867;BME280;36839;51.946;21.002;2024-03-07T04:54:30;-1.00;;;-128.00;-1.00
50867;BME280;36839;51.946;21.002;2024-03-07T04:56:58;-1.00;;;-128.00;-1.00
50867;BME280;36839;51.946;21.002;2024-03-07T04:59:25;-1.00;;;-128.00;-1.00
50867;BME280;36839;51.946;21.002;2024-03-07T05:01:52;-1.00;;;-128.00;-1.00
50867;BME280;36839;51.946;21.002;2024-03-07T05:04:19;-1.00;;;-128.00;-1.00
50867;BME280;36839;51.946;21.002;2024-03-07T05:06:46;-1.00;;;-128.00;-1.00
50867;BME280;36839;51.946;21.002;2024-03-07T05:09:15;-1.00;;;-128.00;-1.00
50867;BME280;36839;51.946;21.002;2024-03-07T05:11:49;-1.00;;;-128.00;-1.00
50867;BME280;36839;51.946;21.002;2024-03-07T05:14:19;-1.00;;;-128.00;-1.00
50867;BME280;36839;51.946;21.002;2024-03-07T05:16:47;-1.00;;;-128.00;-1.00
50867;BME280;36839;51.946;21.002;2024-03-07T05:19:35;-1.00;;;-128.00;-1.00
50867;BME280;36839;51.946;21.002;2024-03-07T05:22:03;-1.00;;;-128.00;-1.00
50867;BME280;36839;51.946;21.002;2024-03-07T05:24:32;-1.00;;;-128.00;-1.00
50867;BME280;36839;51.946;21.002;2024-03-07T05:27:00;-1.00;;;-128.00;-1.00
50867;BME280;36839;51.946;21.002;2024-03-07T05:29:26;-1.00;;;-128.00;-1.00
50867;BME280;36839;51.946;21.002;2024-03-07T05:31:53;-1.00;;;-128.00;-1.00
50867;BME280;36839;51.946;21.002;2024-03-07T05:34:20;-1.00;;;-128.00;-1.00
50867;BME280;36839;51.946;21.002;2024-03-07T05:36:47;-1.00;;;-128.00;-1.00
50867;BME280;36839;51.946;21.002;2024-03-07T05:39:15;-1.00;;;-128.00;-1.00
50867;BME280;36839;51.946;21.002;2024-03-07T05:41:43;-1.00;;;-128.00;-1.00
50867;BME280;36839;51.946;21.002;2024-03-07T05:44:13;-1.00;;;-128.00;-1.00
50867;BME280;36839;51.946;21.002;2024-03-07T05:46:41;-1.00;;;-128.00;-1.00
50867;BME280;36839;51.946;21.002;2024-03-07T05:49:13;-1.00;;;-128.00;-1.00
50867;BME280;36839;51.946;21.002;2024-03-07T05:51:41;-1.00;;;-128.00;-1.00
50867;BME280;36839;51.946;21.002;2024-03-07T05:54:08;-1.00;;;-128.00;-1.00
50867;BME280;36839;51.946;21.002;2024-03-07T05:56:35;-1.00;;;-128.00;-1.00
50867;BME280;36839;51.946;21.002;2024-03-07T05:59:03;-1.00;;;-128.00;-1.00
50867;BME280;36839;51.946;21.002;2024-03-07T06:01:39;-1.00;;;-128.00;-1.00
50867;BME280;36839;51.946;21.002;2024-03-07T06:04:06;-1.00;;;-128.00;-1.00
50867;BME280;36839;51.946;21.002;2024-03-07T06:06:34;-1.00;;;-128.00;-1.00
50867;BME280;36839;51.946;21.002;2024-03-07T06:09:04;-1.00;;;-128.00;-1.00
50867;BME280;36839;51.946;21.002;2024-03-07T06:11:34;-1.00;;;-128.00;-1.00
50867;BME280;36839;51.946;21.002;2024-03-07T06:14:03;-1.00;;;-128.00;-1.00
50867;BME280;36839;51.946;21.002;2024-03-07T06:16:31;-1.00;;;-128.00;-1.00
50867;BME280;36839;51.946;21.002;2024-03-07T06:19:02;-1.00;;;-128.00;-1.00
50867;BME280;36839;51.946;21.002;2024-03-07T06:21:30;-1.00;;;-128.00;-1.00
50867;BME280;36839;51.946;21.002;2024-03-07T06:23:57;-1.00;;;-128.00;-1.00
50867;BME280;36839;51.946;21.002;2024-03-07T06:26:32;-1.00;;;-128.00;-1.00
50867;BME280;36839;51.946;21.002;2024-03-07T06:29:12;-1.00;;;-128.00;-1.00
50867;BME280;36839;51.946;21.002;2024-03-07T06:31:40;-1.00;;;-128.00;-1.00
50867;BME280;36839;51.946;21.002;2024-03-07T06:34:09;-1.00;;;-128.00;-1.00
50867;BME280;36839;51.946;21.002;2024-03-07T06:36:38;-1.00;;;-128.00;-1.00
50867;BME280;36839;51.946;21.002;2024-03-07T06:39:05;-1.00;;;-128.00;-1.00
50867;BME280;36839;51.946;21.002;2024-03-07T06:41:33;-1.00;;;-128.00;-1.00
50867;BME280;36839;51.946;21.002;2024-03-07T06:44:00;-1.00;;;-128.00;-1.00
50867;BME280;36839;51.946;21.002;2024-03-07T06:46:27;-1.00;;;-128.00;-1.00
50867;BME280;36839;51.946;21.002;2024-03-07T06:48:55;-1.00;;;-128.00;-1.00
50867;BME280;36839;51.946;21.002;2024-03-07T06:51:25;-1.00;;;-128.00;-1.00
50867;BME280;36839;51.946;21.002;2024-03-07T06:53:52;-1.00;;;-128.00;-1.00
50867;BME280;36839;51.946;21.002;2024-03-07T06:56:18;-1.00;;;-128.00;-1.00
50867;BME280;36839;51.946;21.002;2024-03-07T06:58:45;-1.00;;;-128.00;-1.00
50867;BME280;36839;51.946;21.002;2024-03-07T07:01:13;-1.00;;;-128.00;-1.00
50867;BME280;36839;51.946;21.002;2024-03-07T07:03:42;-1.00;;;-128.00;-1.00
50867;BME280;36839;51.946;21.002;2024-03-07T07:06:18;-1.00;;;-128.00;-1.00
50867;BME280;36839;51.946;21.002;2024-03-07T07:08:45;-1.00;;;-128.00;-1.00
50867;BME280;36839;51.946;21.002;2024-03-07T07:11:12;-1.00;;;-128.00;-1.00
50867;BME280;36839;51.946;21.002;2024-03-07T07:13:38;-1.00;;;-128.00;-1.00
50867;BME280;36839;51.946;21.002;2024-03-07T07:16:05;-1.00;;;-128.00;-1.00
50867;BME280;36839;51.946;21.002;2024-03-07T07:18:32;-1.00;;;-128.00;-1.00
50867;BME280;36839;51.946;21.002;2024-03-07T07:20:58;-1.00;;;-128.00;-1.00
50867;BME280;36839;51.946;21.002;2024-03-07T07:23:25;-1.00;;;-128.00;-1.00
50867;BME280;36839;51.946;21.002;2024-03-07T07:25:53;-1.00;;;-128.00;-1.00
50867;BME280;36839;51.946;21.002;2024-03-07T07:28:21;-1.00;;;-128.00;-1.00
50867;BME280;36839;51.946;21.002;2024-03-07T07:30:48;-1.00;;;-128.00;-1.00
50867;BME280;36839;51.946;21.002;2024-03-07T07:33:15;-1.00;;;-128.00;-1.00
50867;BME280;36839;51.946;21.002;2024-03-07T07:35:41;-1.00;;;-128.00;-1.00
50867;BME280;36839;51.946;21.002;2024-03-07T07:38:08;-1.00;;;-128.00;-1.00
50867;BME280;36839;51.946;21.002;2024-03-07T07:40:37;-1.00;;;-128.00;-1.00
50867;BME280;36839;51.946;21.002;2024-03-07T07:43:04;-1.00;;;-128.00;-1.00
50867;BME280;36839;51.946;21.002;2024-03-07T07:45:31;-1.00;;;-128.00;-1.00
50867;BME280;36839;51.946;21.002;2024-03-07T07:47:59;-1.00;;;-128.00;-1.00
50867;BME280;36839;51.946;21.002;2024-03-07T07:50:27;-1.00;;;-128.00;-1.00
50867;BME280;36839;51.946;21.002;2024-03-07T07:52:58;-1.00;;;-128.00;-1.00
50867;BME280;36839;51.946;21.002;2024-03-07T07:55:27;-1.00;;;-128.00;-1.00
50867;BME280;36839;51.946;21.002;2024-03-07T07:57:56;-1.00;;;-128.00;-1.00
50867;BME280;36839;51.946;21.002;2024-03-07T08:00:27;-1.00;;;-128.00;-1.00
50867;BME280;36839;51.946;21.002;2024-03-07T08:02:59;-1.00;;;-128.00;-1.00
50867;BME280;36839;51.946;21.002;2024-03-07T08:05:36;-1.00;;;-128.00;-1.00
50867;BME280;36839;51.946;21.002;2024-03-07T08:08:06;-1.00;;;-128.00;-1.00
50867;BME280;36839;51.946;21.002;2024-03-07T08:10:34;-1.00;;;-128.00;-1.00
50867;BME280;36839;51.946;21.002;2024-03-07T08:13:02;-1.00;;;-128.00;-1.00
50867;BME280;36839;51.946;21.002;2024-03-07T08:15:30;-1.00;;;-128.00;-1.00
50867;BME280;36839;51.946;21.002;2024-03-07T08:17:58;-1.00;;;-128.00;-1.00
50867;BME280;36839;51.946;21.002;2024-03-07T08:20:26;-1.00;;;-128.00;-1.00
50867;BME280;36839;51.946;21.002;2024-03-07T08:22:55;-1.00;;;-128.00;-1.00
50867;BME280;36839;51.946;21.002;2024-03-07T08:25:24;-1.00;;;-128.00;-1.00
50867;BME280;36839;51.946;21.002;2024-03-07T08:27:53;-1.00;;;-128.00;-1.00
50867;BME280;36839;51.946;21.002;2024-03-07T08:30:21;-1.00;;;-128.00;-1.00
50867;BME280;36839;51.946;21.002;2024-03-07T08:32:53;-1.00;;;-128.00;-1.00
50867;BME280;36839;51.946;21.002;2024-03-07T08:35:21;-1.00;;;-128.00;-1.00
50867;BME280;36839;51.946;21.002;2024-03-07T08:37:52;-1.00;;;-128.00;-1.00
50867;BME280;36839;51.946;21.002;2024-03-07T08:40:28;-1.00;;;-128.00;-1.00
50867;BME280;36839;51.946;21.002;2024-03-07T08:43:02;-1.00;;;-128.00;-1.00
50867;BME280;36839;51.946;21.002;2024-03-07T08:45:33;-1.00;;;-128.00;-1.00
50867;BME280;36839;51.946;21.002;2024-03-07T08:48:00;-1.00;;;-128.00;-1.00
50867;BME280;36839;51.946;21.002;2024-03-07T08:50:27;-1.00;;;-128.00;-1.00
50867;BME280;36839;51.946;21.002;2024-03-07T08:52:54;-1.00;;;-128.00;-1.00
50867;BME280;36839;51.946;21.002;2024-03-07T08:55:25;-1.00;;;-128.00;-1.00
50867;BME280;36839;51.946;21.002;2024-03-07T08:57:53;-1.00;;;-128.00;-1.00
50867;BME280;36839;51.946;21.002;2024-03-07T09:00:20;-1.00;;;-128.00;-1.00
50867;BME280;36839;51.946;21.002;2024-03-07T09:02:57;-1.00;;;-128.00;-1.00
50867;BME280;36839;51.946;21.002;2024-03-07T09:05:25;-1.00;;;-128.00;-1.00
50867;BME280;36839;51.946;21.002;2024-03-07T09:07:54;-1.00;;;-128.00;-1.00
50867;BME280;36839;51.946;21.002;2024-03-07T09:10:21;-1.00;;;-128.00;-1.00
50867;BME280;36839;51.946;21.002;2024-03-07T09:12:50;-1.00;;;-128.00;-1.00
50867;BME280;36839;51.946;21.002;2024-03-07T09:15:18;-1.00;;;-128.00;-1.00
50867;BME280;36839;51.946;21.002;2024-03-07T09:17:50;-1.00;;;-128.00;-1.00
50867;BME280;36839;51.946;21.002;2024-03-07T09:20:17;-1.00;;;-128.00;-1.00
50867;BME280;36839;51.946;21.002;2024-03-07T09:22:46;-1.00;;;-128.00;-1.00
50867;BME280;36839;51.946;21.002;2024-03-07T09:25:17;-1.00;;;-128.00;-1.00
50867;BME280;36839;51.946;21.002;2024-03-07T09:27:45;-1.00;;;-128.00;-1.00
50867;BME280;36839;51.946;21.002;2024-03-07T09:30:12;-1.00;;;-128.00;-1.00
50867;BME280;36839;51.946;21.002;2024-03-07T09:32:41;-1.00;;;-128.00;-1.00
50867;BME280;36839;51.946;21.002;2024-03-07T09:35:09;-1.00;;;-128.00;-1.00
50867;BME280;36839;51.946;21.002;2024-03-07T09:37:41;-1.00;;;-128.00;-1.00
50867;BME280;36839;51.946;21.002;2024-03-07T09:40:09;-1.00;;;-128.00;-1.00
50867;BME280;36839;51.946;21.002;2024-03-07T09:42:45;-1.00;;;-128.00;-1.00
50867;BME280;36839;51.946;21.002;2024-03-07T09:45:15;-1.00;;;-128.00;-1.00
50867;BME280;36839;51.946;21.002;2024-03-07T09:47:46;-1.00;;;-128.00;-1.00
50867;BME280;36839;51.946;21.002;2024-03-07T09:50:18;-1.00;;;-128.00;-1.00
50867;BME280;36839;51.946;21.002;2024-03-07T09:52:52;-1.00;;;-128.00;-1.00
50867;BME280;36839;51.946;21.002;2024-03-07T09:55:20;-1.00;;;-128.00;-1.00
50867;BME280;36839;51.946;21.002;2024-03-07T09:57:48;-1.00;;;-128.00;-1.00
50867;BME280;36839;51.946;21.002;2024-03-07T10:00:18;-1.00;;;-128.00;-1.00
50867;BME280;36839;51.946;21.002;2024-03-07T10:05:22;-1.00;;;-128.00;-1.00
50867;BME280;36839;51.946;21.002;2024-03-07T10:07:50;-1.00;;;-128.00;-1.00
50867;BME280;36839;51.946;21.002;2024-03-07T10:10:18;-1.00;;;-128.00;-1.00
50867;BME280;36839;51.946;21.002;2024-03-07T10:12:45;-1.00;;;-128.00;-1.00
50867;BME280;36839;51.946;21.002;2024-03-07T10:15:12;-1.00;;;-128.00;-1.00
50867;BME280;36839;51.946;21.002;2024-03-07T10:17:39;-1.00;;;-128.00;-1.00
50867;BME280;36839;51.946;21.002;2024-03-07T10:20:12;-1.00;;;-128.00;-1.00
50867;BME280;36839;51.946;21.002;2024-03-07T10:22:41;-1.00;;;-128.00;-1.00
50867;BME280;36839;51.946;21.002;2024-03-07T10:25:08;-1.00;;;-128.00;-1.00
50867;BME280;36839;51.946;21.002;2024-03-07T10:27:37;-1.00;;;-128.00;-1.00
50867;BME280;36839;51.946;21.002;2024-03-07T10:30:05;-1.00;;;-128.00;-1.00
50867;BME280;36839;51.946;21.002;2024-03-07T10:32:35;-1.00;;;-128.00;-1.00
50867;BME280;36839;51.946;21.002;2024-03-07T10:35:06;-1.00;;;-128.00;-1.00
50867;BME280;36839;51.946;21.002;2024-03-07T10:37:35;-1.00;;;-128.00;-1.00
50867;BME280;36839;51.946;21.002;2024-03-07T10:40:03;-1.00;;;-128.00;-1.00
50867;BME280;36839;51.946;21.002;2024-03-07T10:42:45;-1.00;;;-128.00;-1.00
50867;BME280;36839;51.946;21.002;2024-03-07T10:45:20;-1.00;;;-128.00;-1.00
50867;BME280;36839;51.946;21.002;2024-03-07T10:47:53;-1.00;;;-128.00;-1.00
50867;BME280;36839;51.946;21.002;2024-03-07T10:50:45;-1.00;;;-128.00;-1.00
50867;BME280;36839;51.946;21.002;2024-03-07T10:53:38;-1.00;;;-128.00;-1.00
50867;BME280;36839;51.946;21.002;2024-03-07T11:01:27;-1.00;;;-128.00;-1.00
50867;BME280;36839;51.946;21.002;2024-03-07T11:03:58;-1.00;;;-128.00;-1.00
50867;BME280;36839;51.946;21.002;2024-03-07T11:06:26;-1.00;;;-128.00;-1.00
50867;BME280;36839;51.946;21.002;2024-03-07T11:08:54;-1.00;;;-128.00;-1.00
50867;BME280;36839;51.946;21.002;2024-03-07T11:11:21;-1.00;;;-128.00;-1.00
50867;BME280;36839;51.946;21.002;2024-03-07T11:13:50;-1.00;;;-128.00;-1.00
50867;BME280;36839;51.946;21.002;2024-03-07T11:16:22;-1.00;;;-128.00;-1.00
50867;BME280;36839;51.946;21.002;2024-03-07T11:21:45;-1.00;;;-128.00;-1.00
50867;BME280;36839;51.946;21.002;2024-03-07T11:24:31;-1.00;;;-128.00;-1.00
50867;BME280;36839;51.946;21.002;2024-03-07T11:27:03;-1.00;;;-128.00;-1.00
50867;BME280;36839;51.946;21.002;2024-03-07T11:29:48;-1.00;;;-128.00;-1.00
50867;BME280;36839;51.946;21.002;2024-03-07T11:32:23;-1.00;;;-128.00;-1.00
50867;BME280;36839;51.946;21.002;2024-03-07T11:34:49;-1.00;;;-128.00;-1.00
50867;BME280;36839;51.946;21.002;2024-03-07T11:37:37;-1.00;;;-128.00;-1.00
50867;BME280;36839;51.946;21.002;2024-03-07T11:40:12;-1.00;;;-128.00;-1.00
50867;BME280;36839;51.946;21.002;2024-03-07T11:42:48;-1.00;;;-128.00;-1.00
50867;BME280;36839;51.946;21.002;2024-03-07T11:45:16;-1.00;;;-128.00;-1.00
50867;BME280;36839;51.946;21.002;2024-03-07T11:47:53;-1.00;;;-128.00;-1.00
50867;BME280;36839;51.946;21.002;2024-03-07T11:50:33;-1.00;;;-128.00;-1.00
50867;BME280;36839;51.946;21.002;2024-03-07T11:53:04;-1.00;;;-128.00;-1.00
50867;BME280;36839;51.946;21.002;2024-03-07T11:55:36;-1.00;;;-128.00;-1.00
50867;BME280;36839;51.946;21.002;2024-03-07T11:58:17;-1.00;;;-128.00;-1.00
50867;BME280;36839;51.946;21.002;2024-03-07T12:00:45;-1.00;;;-128.00;-1.00
50867;BME280;36839;51.946;21.002;2024-03-07T12:03:13;-1.00;;;-128.00;-1.00
50867;BME280;36839;51.946;21.002;2024-03-07T12:05:41;-1.00;;;-128.00;-1.00
50867;BME280;36839;51.946;21.002;2024-03-07T12:08:10;-1.00;;;-128.00;-1.00
50867;BME280;36839;51.946;21.002;2024-03-07T12:10:39;-1.00;;;-128.00;-1.00
50867;BME280;36839;51.946;21.002;2024-03-07T12:13:13;-1.00;;;-128.00;-1.00
50867;BME280;36839;51.946;21.002;2024-03-07T12:15:46;-1.00;;;-128.00;-1.00
50867;BME280;36839;51.946;21.002;2024-03-07T12:18:13;-1.00;;;-128.00;-1.00
50867;BME280;36839;51.946;21.002;2024-03-07T12:20:41;-1.00;;;-128.00;-1.00
50867;BME280;36839;51.946;21.002;2024-03-07T12:23:09;-1.00;;;-128.00;-1.00
50867;BME280;36839;51.946;21.002;2024-03-07T12:25:35;-1.00;;;-128.00;-1.00
50867;BME280;36839;51.946;21.002;2024-03-07T12:28:10;-1.00;;;-128.00;-1.00
50867;BME280;36839;51.946;21.002;2024-03-07T12:33:18;-1.00;;;-128.00;-1.00
50867;BME280;36839;51.946;21.002;2024-03-07T12:35:47;-1.00;;;-128.00;-1.00
50867;BME280;36839;51.946;21.002;2024-03-07T12:38:16;-1.00;;;-128.00;-1.00
50867;BME280;36839;51.946;21.002;2024-03-07T12:40:44;-1.00;;;-128.00;-1.00
50867;BME280;36839;51.946;21.002;2024-03-07T12:43:14;-1.00;;;-128.00;-1.00
50867;BME280;36839;51.946;21.002;2024-03-07T12:45:50;-1.00;;;-128.00;-1.00
50867;BME280;36839;51.946;21.002;2024-03-07T12:48:18;-1.00;;;-128.00;-1.00
50867;BME280;36839;51.946;21.002;2024-03-07T12:50:49;-1.00;;;-128.00;-1.00
50867;BME280;36839;51.946;21.002;2024-03-07T12:53:20;-1.00;;;-128.00;-1.00
50867;BME280;36839;51.946;21.002;2024-03-07T12:55:48;-1.00;;;-128.00;-1.00
50867;BME280;36839;51.946;21.002;2024-03-07T12:58:15;-1.00;;;-128.00;-1.00
50867;BME280;36839;51.946;21.002;2024-03-07T13:00:42;-1.00;;;-128.00;-1.00
50867;BME280;36839;51.946;21.002;2024-03-07T13:03:10;-1.00;;;-128.00;-1.00
50867;BME280;36839;51.946;21.002;2024-03-07T13:05:37;-1.00;;;-128.00;-1.00
50867;BME280;36839;51.946;21.002;2024-03-07T13:08:07;-1.00;;;-128.00;-1.00
50867;BME280;36839;51.946;21.002;2024-03-07T13:10:44;-1.00;;;-128.00;-1.00
50867;BME280;36839;51.946;21.002;2024-03-07T13:13:11;-1.00;;;-128.00;-1.00
50867;BME280;36839;51.946;21.002;2024-03-07T13:15:38;-1.00;;;-128.00;-1.00
50867;BME280;36839;51.946;21.002;2024-03-07T13:18:06;-1.00;;;-128.00;-1.00